Braithwaite, Louisiana
Current Conditions -  °F | °C
As of 4:55 PM on Tuesday 21 Oct 2014 (Local Time) from KNBG Reporting Station
Clear Clear  
Wind Chill: 78°   Ceiling: Unl
Heat Index: 79°   Visibility: 10mi
Dew Point: 52°   Wind: 6mph
Humidity: 40%   Direction: 110°ESE
Pressure: 29.97"   Gusts: NA
Location:  29.87°N, 89.94°W
Report Text: KNBG 212155Z 11005KT 10SM CLR 26/11 A2997 RMK AO2 SLP148 T02560111 $
Loading
Personal Weather Stations






























Interactive Weather Map
Tropical Storm Tracking
New forecast layout! Learn more

10-Day Weather Forecast

Advertisements
Track Severe Weather on mobile